createdAt,value
2019-05-26T00:00:28.124Z,101173.97
2019-05-26T00:02:58.099Z,101171.70
2019-05-26T00:05:28.003Z,101174.86
2019-05-26T00:07:58.053Z,101169.63
2019-05-26T00:10:27.985Z,101170.03
2019-05-26T00:12:57.908Z,101172.34
2019-05-26T00:15:27.865Z,101168.76
2019-05-26T00:17:57.744Z,101163.62
2019-05-26T00:20:27.638Z,101155.78
2019-05-26T00:22:57.778Z,101160.09
2019-05-26T00:25:27.734Z,101160.87
2019-05-26T00:27:57.658Z,101162.28
2019-05-26T00:30:27.682Z,101154.33
2019-05-26T00:32:57.583Z,101153.09
2019-05-26T00:35:27.805Z,101149.20
2019-05-26T00:37:57.713Z,101147.47
2019-05-26T00:40:27.688Z,101148.91
2019-05-26T00:42:57.594Z,101141.55
2019-05-26T00:45:27.710Z,101141.94
2019-05-26T00:47:57.801Z,101138.61
2019-05-26T00:50:27.822Z,101132.63
2019-05-26T00:52:57.692Z,101131.77
2019-05-26T00:55:27.716Z,101138.09
2019-05-26T00:57:57.672Z,101144.27
2019-05-26T01:00:40.979Z,101138.59
2019-05-26T01:03:11.996Z,101136.08
2019-05-26T01:05:42.275Z,101134.80
2019-05-26T01:08:12.342Z,101138.22
2019-05-26T01:10:42.463Z,101136.50
2019-05-26T01:13:12.454Z,101135.20
2019-05-26T01:15:42.339Z,101129.58
2019-05-26T01:18:12.198Z,101122.66
2019-05-26T01:20:42.078Z,101129.13
2019-05-26T01:23:11.948Z,101130.45
2019-05-26T01:25:41.818Z,101131.36
2019-05-26T01:28:11.693Z,101128.28
2019-05-26T01:30:41.731Z,101131.77
2019-05-26T01:33:11.610Z,101135.23
2019-05-26T01:35:43.112Z,101130.49
2019-05-26T01:38:23.632Z,101135.67
2019-05-26T01:40:47.061Z,101136.97
2019-05-26T01:43:16.938Z,101136.09
2019-05-26T01:45:46.885Z,101141.71
2019-05-26T01:48:16.753Z,101135.25
2019-05-26T01:50:46.631Z,101134.80
2019-05-26T01:53:16.506Z,101131.79
2019-05-26T01:55:46.375Z,101132.21
2019-05-26T01:58:16.259Z,101134.36
2019-05-26T02:00:46.122Z,101130.51
2019-05-26T02:03:16.062Z,101132.22
2019-05-26T02:05:46.019Z,101126.59
2019-05-26T02:08:15.900Z,101136.92
2019-05-26T02:10:45.776Z,101132.19
2019-05-26T02:13:15.680Z,101131.80
2019-05-26T02:15:45.602Z,101131.77
2019-05-26T02:18:15.502Z,101130.05
2019-05-26T02:20:45.402Z,101121.00
2019-05-26T02:23:15.382Z,101125.73
2019-05-26T02:25:45.326Z,101124.42
2019-05-26T02:28:15.256Z,101124.84
2019-05-26T02:30:45.199Z,101124.86
2019-05-26T02:33:15.105Z,101124.80
2019-05-26T02:35:45.041Z,101120.13
2019-05-26T02:38:14.937Z,101121.39
2019-05-26T02:40:44.861Z,101122.66
2019-05-26T02:43:15.096Z,101127.05
2019-05-26T02:45:44.999Z,101123.12
2019-05-26T02:48:14.956Z,101121.41
2019-05-26T02:50:44.873Z,101124.77
2019-05-26T02:53:14.749Z,101119.69
2019-05-26T02:55:44.734Z,101122.69
2019-05-26T02:58:14.716Z,101122.30
2019-05-26T03:00:46.499Z,101127.45
2019-05-26T03:03:17.136Z,101132.22
2019-05-26T03:05:48.268Z,101118.81
2019-05-26T03:08:18.238Z,101123.58
2019-05-26T03:10:52.166Z,101123.16
2019-05-26T03:13:22.139Z,101124.41
2019-05-26T03:15:54.066Z,101120.12
2019-05-26T03:18:23.958Z,101124.86
2019-05-26T03:20:57.133Z,101124.87
2019-05-26T03:23:31.946Z,101122.28
2019-05-26T03:26:02.178Z,101128.75
2019-05-26T03:28:32.043Z,101124.45
2019-05-26T03:31:01.997Z,101128.33
2019-05-26T03:33:31.883Z,101126.94
2019-05-26T03:36:01.762Z,101116.23
2019-05-26T03:38:31.727Z,101125.30
2019-05-26T03:41:01.617Z,101124.42
2019-05-26T03:43:31.519Z,101126.47
2019-05-26T03:46:21.278Z,101122.72
2019-05-26T03:48:51.572Z,101125.30
2019-05-26T03:51:21.781Z,101130.78
2019-05-26T03:53:51.660Z,101133.23
2019-05-26T03:56:21.614Z,101133.06
2019-05-26T03:58:51.509Z,101129.59
2019-05-26T04:01:21.449Z,101127.89
2019-05-26T04:03:51.448Z,101126.59
2019-05-26T04:06:21.481Z,101122.23
2019-05-26T04:08:51.634Z,101125.23
2019-05-26T04:11:21.501Z,101122.23
2019-05-26T04:13:51.398Z,101123.55
2019-05-26T04:16:21.274Z,101118.77
2019-05-26T04:18:51.147Z,101114.48
2019-05-26T04:21:21.039Z,101114.38
2019-05-26T04:23:50.919Z,101102.89
2019-05-26T04:26:20.793Z,101110.06
2019-05-26T04:28:50.657Z,101108.02
2019-05-26T04:31:20.550Z,101101.80
2019-05-26T04:33:50.432Z,101101.02
2019-05-26T04:36:20.301Z,101103.19
2019-05-26T04:38:50.186Z,101104.50
2019-05-26T04:41:20.056Z,101102.18
2019-05-26T04:43:49.940Z,101109.24
2019-05-26T04:46:19.839Z,101108.00
2019-05-26T04:48:49.714Z,101107.52
2019-05-26T04:51:19.608Z,101104.30
2019-05-26T04:53:49.516Z,101104.61
2019-05-26T04:56:19.384Z,101102.44
2019-05-26T04:58:49.271Z,101103.16
2019-05-26T05:01:19.141Z,101095.58
2019-05-26T05:03:49.025Z,101099.27
2019-05-26T05:06:18.901Z,101086.23
2019-05-26T05:08:48.764Z,101088.34
2019-05-26T05:11:18.634Z,101079.98
2019-05-26T05:13:48.505Z,101086.22
2019-05-26T05:16:18.400Z,101090.77
2019-05-26T05:18:48.275Z,101084.27
2019-05-26T05:21:18.147Z,101079.64
2019-05-26T05:23:48.043Z,101076.45
2019-05-26T05:26:17.918Z,101075.71
2019-05-26T05:28:47.799Z,101070.45
2019-05-26T05:31:17.666Z,101063.32
2019-05-26T05:33:47.566Z,101062.91
2019-05-26T05:36:17.441Z,101063.02
2019-05-26T05:38:47.334Z,101060.28
2019-05-26T05:41:17.242Z,101061.16
2019-05-26T05:43:47.144Z,101059.05
2019-05-26T05:46:17.225Z,101055.84
2019-05-26T05:48:47.140Z,101056.42
2019-05-26T05:51:17.034Z,101061.57
2019-05-26T05:53:46.915Z,101059.58
2019-05-26T05:56:17.092Z,101054.77
2019-05-26T05:58:47.009Z,101060.09
2019-05-26T06:01:17.141Z,101045.57
2019-05-26T06:03:47.284Z,101046.95
2019-05-26T06:06:17.165Z,101048.27
2019-05-26T06:08:47.036Z,101041.06
2019-05-26T06:11:17.442Z,101041.82
2019-05-26T06:13:47.379Z,101043.12
2019-05-26T06:16:17.271Z,101044.66
2019-05-26T06:18:47.188Z,101035.86
2019-05-26T06:21:17.131Z,101035.45
2019-05-26T06:23:47.029Z,101041.23
2019-05-26T06:26:16.900Z,101033.77
2019-05-26T06:28:46.856Z,101030.73
2019-05-26T06:31:16.729Z,101024.56
2019-05-26T06:33:46.611Z,101023.05
2019-05-26T06:36:16.494Z,101025.92
2019-05-26T06:38:46.386Z,101027.78
2019-05-26T06:41:30.396Z,101022.01
2019-05-26T06:43:47.922Z,101024.66
2019-05-26T06:46:17.788Z,101014.31
2019-05-26T06:48:47.680Z,101017.78
2019-05-26T06:51:17.564Z,101021.91
2019-05-26T06:53:47.431Z,101021.87
2019-05-26T06:56:17.327Z,101021.08
2019-05-26T06:58:47.205Z,101015.91
2019-05-26T07:01:17.121Z,101021.97
2019-05-26T07:03:47.005Z,101021.83
2019-05-26T07:06:16.880Z,101009.80
2019-05-26T07:08:46.752Z,101010.39
2019-05-26T07:11:16.654Z,101007.22
2019-05-26T07:13:46.547Z,101012.39
2019-05-26T07:16:16.479Z,100997.50
2019-05-26T07:18:46.498Z,100991.64
2019-05-26T07:21:16.395Z,100983.75
2019-05-26T07:23:46.310Z,100987.52
2019-05-26T07:26:16.303Z,100990.69
2019-05-26T07:28:46.182Z,100990.18
2019-05-26T07:31:16.071Z,100982.98
2019-05-26T07:33:45.963Z,100981.09
2019-05-26T07:36:16.198Z,100983.66
2019-05-26T07:38:46.085Z,100982.39
2019-05-26T07:41:15.991Z,100976.77
2019-05-26T07:43:45.953Z,100976.70
2019-05-26T07:46:15.855Z,100977.33
2019-05-26T07:48:46.010Z,100973.93
2019-05-26T07:51:15.895Z,100974.05
2019-05-26T07:53:47.244Z,100988.55
2019-05-26T07:56:17.345Z,100984.47
2019-05-26T07:58:47.219Z,100982.22
2019-05-26T08:01:17.112Z,100985.98
2019-05-26T08:03:46.997Z,100981.80
2019-05-26T08:06:16.917Z,100969.79
2019-05-26T08:08:46.765Z,100975.45
2019-05-26T08:11:16.660Z,100973.91
2019-05-26T08:13:46.531Z,100974.20
2019-05-26T08:16:16.470Z,100974.88
2019-05-26T08:18:46.461Z,100975.53
2019-05-26T08:21:16.374Z,100971.38
2019-05-26T08:23:46.387Z,100966.02
2019-05-26T08:26:16.399Z,100966.66
2019-05-26T08:28:46.392Z,100963.33
2019-05-26T08:31:16.318Z,100947.67
2019-05-26T08:33:46.286Z,100938.58
2019-05-26T08:36:16.296Z,100938.13
2019-05-26T08:38:46.293Z,100934.59
2019-05-26T08:41:16.229Z,100927.64
2019-05-26T08:43:46.135Z,100917.78
2019-05-26T08:46:16.093Z,100921.16
2019-05-26T08:48:46.110Z,100912.28
2019-05-26T08:51:16.030Z,100917.69
2019-05-26T08:53:46.339Z,100921.67
2019-05-26T08:56:16.283Z,100916.75
2019-05-26T08:58:46.286Z,100904.98
2019-05-26T09:01:16.234Z,100909.91
2019-05-26T09:03:46.155Z,100904.19
2019-05-26T09:06:16.181Z,100900.30
2019-05-26T09:08:46.087Z,100887.53
2019-05-26T09:11:16.017Z,100895.66
2019-05-26T09:13:45.982Z,100886.94
2019-05-26T09:16:15.952Z,100894.60
2019-05-26T09:18:45.913Z,100884.80
2019-05-26T09:21:15.990Z,100880.50
2019-05-26T09:23:45.928Z,100872.55
2019-05-26T09:26:16.196Z,100873.16
2019-05-26T09:28:46.310Z,100873.36
2019-05-26T09:31:16.281Z,100867.41
2019-05-26T09:33:46.181Z,100859.16
2019-05-26T09:36:16.127Z,100864.41
2019-05-26T09:38:46.077Z,100860.63
2019-05-26T09:41:16.007Z,100860.55
2019-05-26T09:43:45.892Z,100861.33
2019-05-26T09:46:15.840Z,100857.54
2019-05-26T09:48:45.734Z,100862.25
2019-05-26T09:51:15.685Z,100855.16
2019-05-26T09:54:00.546Z,100853.02
2019-05-26T09:56:17.249Z,100847.29
2019-05-26T09:58:47.193Z,100849.92
2019-05-26T10:01:17.375Z,100838.73
2019-05-26T10:03:47.287Z,100828.91
2019-05-26T10:06:17.293Z,100833.15
2019-05-26T10:08:47.223Z,100826.30
2019-05-26T10:11:17.221Z,100827.93
2019-05-26T10:13:47.155Z,100832.38
2019-05-26T10:16:17.061Z,100827.89
2019-05-26T10:18:47.203Z,100822.75
2019-05-26T10:21:17.172Z,100817.92
2019-05-26T10:23:47.134Z,100817.41
2019-05-26T10:26:17.033Z,100827.25
2019-05-26T10:28:46.957Z,100821.41
2019-05-26T10:31:16.976Z,100819.75
2019-05-26T10:33:46.971Z,100818.65
2019-05-26T10:36:16.872Z,100819.63
2019-05-26T10:38:46.782Z,100818.76
2019-05-26T10:41:16.696Z,100816.92
2019-05-26T10:43:47.841Z,100810.66
2019-05-26T10:46:18.122Z,100811.52
2019-05-26T10:48:48.132Z,100806.78
2019-05-26T10:51:18.133Z,100793.73
2019-05-26T10:53:48.067Z,100788.66
2019-05-26T10:56:18.067Z,100791.77
2019-05-26T10:58:47.976Z,100781.45
2019-05-26T11:01:17.985Z,100775.98
2019-05-26T11:03:47.894Z,100780.60
2019-05-26T11:06:17.857Z,100776.28
2019-05-26T11:08:47.738Z,100781.96
2019-05-26T11:11:17.629Z,100781.34
2019-05-26T11:14:01.899Z,100771.34
2019-05-26T11:16:19.372Z,100754.27
2019-05-26T11:18:49.281Z,100764.34
2019-05-26T11:21:19.212Z,100751.25
2019-05-26T11:23:49.134Z,100756.59
2019-05-26T11:26:19.052Z,100759.77
2019-05-26T11:28:48.942Z,100761.76
2019-05-26T11:31:18.865Z,100761.02
2019-05-26T11:33:48.801Z,100754.29
2019-05-26T11:36:18.793Z,100744.56
2019-05-26T11:38:48.819Z,100736.91
2019-05-26T11:41:18.791Z,100744.11
2019-05-26T11:43:48.727Z,100734.95
2019-05-26T11:46:18.713Z,100736.55
2019-05-26T11:48:48.703Z,100738.20
2019-05-26T11:51:18.675Z,100725.31
2019-05-26T11:53:48.569Z,100723.11
2019-05-26T11:56:18.614Z,100726.94
2019-05-26T11:58:48.628Z,100727.92
2019-05-26T12:01:22.507Z,100724.09
2019-05-26T12:03:50.246Z,100710.97
2019-05-26T12:06:20.338Z,100709.10
2019-05-26T12:08:50.432Z,100715.56
2019-05-26T12:11:20.435Z,100714.92
2019-05-26T12:13:50.489Z,100698.92
2019-05-26T12:16:20.462Z,100684.81
2019-05-26T12:18:50.589Z,100687.23
2019-05-26T12:21:20.525Z,100702.68
2019-05-26T12:23:54.738Z,100692.31
2019-05-26T12:26:22.315Z,100689.53
2019-05-26T12:28:52.886Z,100690.63
2019-05-26T12:31:23.159Z,100688.21
2019-05-26T12:33:53.084Z,100690.12
2019-05-26T12:36:23.121Z,100679.34
2019-05-26T12:38:53.194Z,100694.09
2019-05-26T12:41:24.146Z,100676.67
2019-05-26T12:43:54.894Z,100686.54
2019-05-26T12:46:24.937Z,100681.21
2019-05-26T12:48:54.820Z,100679.59
2019-05-26T12:51:24.703Z,100680.22
2019-05-26T12:53:54.689Z,100672.31
2019-05-26T12:56:24.635Z,100665.59
2019-05-26T12:58:54.608Z,100652.78
2019-05-26T13:01:24.507Z,100663.13
2019-05-26T13:03:54.447Z,100661.54
2019-05-26T13:06:24.341Z,100666.11
2019-05-26T13:08:54.244Z,100659.77
2019-05-26T13:11:24.159Z,100650.30
2019-05-26T13:13:54.121Z,100649.23
2019-05-26T13:16:24.024Z,100660.52
2019-05-26T13:18:53.979Z,100661.70
2019-05-26T13:21:24.140Z,100664.99
2019-05-26T13:23:54.042Z,100662.52
2019-05-26T13:26:24.126Z,100659.39
2019-05-26T13:28:54.029Z,100653.44
2019-05-26T13:31:24.029Z,100648.66
2019-05-26T13:33:53.907Z,100641.47
2019-05-26T13:36:23.854Z,100657.31
2019-05-26T13:38:53.776Z,100644.34
2019-05-26T13:41:23.705Z,100654.51
2019-05-26T13:43:53.605Z,100641.50
2019-05-26T13:46:23.515Z,100650.20
2019-05-26T13:48:53.419Z,100651.81
2019-05-26T13:51:23.424Z,100651.59
2019-05-26T13:53:53.435Z,100650.67
2019-05-26T13:56:23.646Z,100659.43
2019-05-26T13:58:53.576Z,100666.83
2019-05-26T14:01:23.562Z,100657.66
2019-05-26T14:03:53.599Z,100659.88
2019-05-26T14:06:23.595Z,100656.22
2019-05-26T14:08:57.859Z,100649.96
2019-05-26T14:11:25.177Z,100645.96
2019-05-26T14:13:55.222Z,100648.16
2019-05-26T14:16:29.020Z,100645.95
2019-05-26T14:19:00.230Z,100654.70
2019-05-26T14:21:30.119Z,100653.98
2019-05-26T14:23:59.981Z,100656.15
2019-05-26T14:26:29.856Z,100656.34
2019-05-26T14:28:59.716Z,100650.88
2019-05-26T14:31:29.748Z,100645.42
2019-05-26T14:33:59.611Z,100649.36
2019-05-26T14:36:29.491Z,100649.63
2019-05-26T14:38:59.423Z,100640.09
2019-05-26T14:41:29.324Z,100639.69
2019-05-26T14:43:59.192Z,100650.67
2019-05-26T14:46:29.075Z,100649.02
2019-05-26T14:48:58.938Z,100645.48
2019-05-26T14:51:28.818Z,100643.20
2019-05-26T14:53:58.688Z,100650.56
2019-05-26T14:56:28.581Z,100649.60
2019-05-26T14:58:58.416Z,100642.73
2019-05-26T15:01:28.313Z,100639.61
2019-05-26T15:03:58.191Z,100639.67
2019-05-26T15:06:28.138Z,100642.95
2019-05-26T15:08:58.041Z,100643.72
2019-05-26T15:11:27.942Z,100635.97
2019-05-26T15:13:57.823Z,100635.77
2019-05-26T15:16:27.865Z,100648.55
2019-05-26T15:18:57.730Z,100645.83
2019-05-26T15:21:27.612Z,100637.16
2019-05-26T15:23:57.480Z,100645.50
2019-05-26T15:26:27.382Z,100633.72
2019-05-26T15:28:57.324Z,100636.22
2019-05-26T15:31:27.279Z,100634.47
2019-05-26T15:33:57.166Z,100633.59
2019-05-26T15:36:27.114Z,100636.34
2019-05-26T15:38:56.984Z,100638.39
2019-05-26T15:41:26.914Z,100629.57
2019-05-26T15:43:56.796Z,100629.33
2019-05-26T15:46:26.714Z,100625.84
2019-05-26T15:48:56.617Z,100616.94
2019-05-26T15:51:26.695Z,100616.09
2019-05-26T15:53:56.569Z,100610.45
2019-05-26T15:56:26.464Z,100610.31
2019-05-26T15:58:56.474Z,100608.68
2019-05-26T16:01:26.526Z,100609.94
2019-05-26T16:03:56.389Z,100601.65
2019-05-26T16:06:26.456Z,100605.94
2019-05-26T16:08:56.457Z,100605.98
2019-05-26T16:11:26.402Z,100601.02
2019-05-26T16:13:56.402Z,100599.56
2019-05-26T16:16:40.220Z,100599.15
2019-05-26T16:18:57.958Z,100588.77
2019-05-26T16:21:28.555Z,100591.23
2019-05-26T16:23:58.498Z,100590.47
2019-05-26T16:26:28.367Z,100587.75
2019-05-26T16:28:58.276Z,100587.88
2019-05-26T16:31:28.417Z,100581.98
2019-05-26T16:33:58.295Z,100582.09
2019-05-26T16:36:28.178Z,100585.98
2019-05-26T16:38:58.123Z,100569.72
2019-05-26T16:41:28.036Z,100570.67
2019-05-26T16:43:57.934Z,100565.25
2019-05-26T16:46:27.949Z,100576.91
2019-05-26T16:48:57.906Z,100568.48
2019-05-26T16:51:27.880Z,100564.88
2019-05-26T16:53:57.812Z,100553.20
2019-05-26T16:56:27.702Z,100556.14
2019-05-26T16:58:57.640Z,100551.81
2019-05-26T17:01:27.510Z,100548.07
2019-05-26T17:03:57.485Z,100547.55
2019-05-26T17:06:27.571Z,100545.73
2019-05-26T17:08:57.460Z,100545.13
2019-05-26T17:11:27.499Z,100538.08
2019-05-26T17:13:57.433Z,100537.98
2019-05-26T17:16:27.399Z,100530.88
2019-05-26T17:18:57.310Z,100533.34
2019-05-26T17:21:27.179Z,100525.53
2019-05-26T17:23:57.137Z,100526.52
2019-05-26T17:26:27.571Z,100527.72
2019-05-26T17:28:57.443Z,100530.99
2019-05-26T17:31:27.316Z,100532.00
2019-05-26T17:33:57.339Z,100520.89
2019-05-26T17:36:27.211Z,100522.46
2019-05-26T17:38:57.095Z,100525.21
2019-05-26T17:41:27.034Z,100527.61
2019-05-26T17:43:56.957Z,100527.70
2019-05-26T17:46:26.862Z,100522.12
2019-05-26T17:48:57.035Z,100530.59
2019-05-26T17:51:27.061Z,100516.92
2019-05-26T17:53:57.043Z,100512.73
2019-05-26T17:56:26.907Z,100515.59
2019-05-26T17:58:56.793Z,100507.57
2019-05-26T18:01:26.730Z,100504.48
2019-05-26T18:03:56.609Z,100508.22
2019-05-26T18:06:26.512Z,100507.11
2019-05-26T18:08:56.592Z,100505.46
2019-05-26T18:11:26.464Z,100508.04
2019-05-26T18:13:56.367Z,100510.14
2019-05-26T18:16:26.267Z,100510.81
2019-05-26T18:18:56.132Z,100511.25
2019-05-26T18:21:26.007Z,100502.26
2019-05-26T18:23:55.902Z,100506.48
2019-05-26T18:26:25.778Z,100509.91
2019-05-26T18:28:55.680Z,100507.39
2019-05-26T18:31:28.945Z,100500.14
2019-05-26T18:33:57.294Z,100500.22
2019-05-26T18:36:27.174Z,100501.49
2019-05-26T18:38:57.057Z,100492.25
2019-05-26T18:41:26.959Z,100493.19
2019-05-26T18:43:56.855Z,100502.61
2019-05-26T18:46:26.911Z,100505.48
2019-05-26T18:48:56.806Z,100511.74
2019-05-26T18:51:26.701Z,100509.75
2019-05-26T18:53:56.624Z,100511.59
2019-05-26T18:56:26.735Z,100503.28
2019-05-26T18:58:56.648Z,100514.17
2019-05-26T19:01:26.623Z,100504.50
2019-05-26T19:03:56.685Z,100502.04
2019-05-26T19:06:26.651Z,100500.40
2019-05-26T19:08:56.567Z,100504.20
2019-05-26T19:11:26.541Z,100496.62
2019-05-26T19:13:56.438Z,100498.13
2019-05-26T19:16:26.317Z,100499.62
2019-05-26T19:18:56.209Z,100500.75
2019-05-26T19:21:26.248Z,100504.53
2019-05-26T19:23:56.241Z,100497.92
2019-05-26T19:26:26.118Z,100499.67
2019-05-26T19:28:56.100Z,100501.14
2019-05-26T19:31:26.187Z,100500.94
2019-05-26T19:33:56.058Z,100497.30
2019-05-26T19:36:25.966Z,100499.94
2019-05-26T19:38:55.924Z,100499.52
2019-05-26T19:41:25.817Z,100493.03
2019-05-26T19:43:55.974Z,100499.80
2019-05-26T19:46:25.852Z,100495.71
2019-05-26T19:48:55.788Z,100494.84
2019-05-26T19:51:25.791Z,100495.97
2019-05-26T19:53:55.655Z,100499.09
2019-05-26T19:56:25.625Z,100495.16
2019-05-26T19:58:55.537Z,100492.32
2019-05-26T20:01:25.431Z,100495.42
2019-05-26T20:03:55.550Z,100493.64
2019-05-26T20:06:25.537Z,100494.32
2019-05-26T20:08:55.534Z,100496.08
2019-05-26T20:11:25.674Z,100496.38
2019-05-26T20:13:55.554Z,100484.04
2019-05-26T20:16:25.899Z,100490.47
2019-05-26T20:18:55.783Z,100486.86
2019-05-26T20:21:25.698Z,100481.93
2019-05-26T20:23:55.723Z,100485.78
2019-05-26T20:26:25.856Z,100488.90
2019-05-26T20:28:55.741Z,100488.59
2019-05-26T20:31:25.736Z,100490.58
2019-05-26T20:33:55.672Z,100489.44
2019-05-26T20:36:25.602Z,100484.41
2019-05-26T20:38:55.512Z,100489.33
2019-05-26T20:41:25.406Z,100484.22
2019-05-26T20:43:55.331Z,100477.23
2019-05-26T20:46:25.310Z,100479.48
2019-05-26T20:48:55.302Z,100484.06
2019-05-26T20:51:25.249Z,100477.91
2019-05-26T20:53:55.124Z,100482.30
2019-05-26T20:56:25.020Z,100483.47
2019-05-26T20:58:55.004Z,100481.84
2019-05-26T21:01:25.415Z,100479.23
2019-05-26T21:03:55.320Z,100475.69
2019-05-26T21:06:25.320Z,100469.44
2019-05-26T21:08:55.264Z,100471.64
2019-05-26T21:11:25.320Z,100467.25
2019-05-26T21:13:56.988Z,100471.73
2019-05-26T21:16:27.083Z,100470.13
2019-05-26T21:18:57.035Z,100467.03
2019-05-26T21:21:27.494Z,100472.81
2019-05-26T21:23:57.805Z,100466.30
2019-05-26T21:26:27.733Z,100474.72
2019-05-26T21:28:57.637Z,100477.05
2019-05-26T21:31:28.202Z,100472.86
2019-05-26T21:33:58.110Z,100466.50
2019-05-26T21:36:28.059Z,100460.72
2019-05-26T21:38:58.546Z,100467.24
2019-05-26T21:41:28.434Z,100456.64
2019-05-26T21:43:58.400Z,100463.53
2019-05-26T21:46:28.308Z,100460.16
2019-05-26T21:48:58.529Z,100463.89
2019-05-26T21:51:28.423Z,100453.30
2019-05-26T21:53:58.305Z,100462.58
2019-05-26T21:56:28.208Z,100455.42
2019-05-26T21:58:58.109Z,100450.31
2019-05-26T22:01:28.575Z,100465.83
2019-05-26T22:03:58.486Z,100454.45
2019-05-26T22:06:28.427Z,100461.06
2019-05-26T22:08:58.372Z,100457.73
2019-05-26T22:11:28.639Z,100438.67
2019-05-26T22:13:58.782Z,100442.53
2019-05-26T22:16:28.884Z,100434.28
2019-05-26T22:19:00.236Z,100435.99
2019-05-26T22:21:30.272Z,100432.98
2019-05-26T22:24:00.156Z,100430.06
2019-05-26T22:26:30.164Z,100425.24
2019-05-26T22:29:00.472Z,100415.83
2019-05-26T22:31:30.429Z,100420.25
2019-05-26T22:34:00.381Z,100414.38
2019-05-26T22:36:30.339Z,100409.97
2019-05-26T22:39:00.270Z,100410.09
2019-05-26T22:41:30.214Z,100406.85
2019-05-26T22:44:00.086Z,100399.08
2019-05-26T22:46:31.360Z,100402.05
2019-05-26T22:49:01.375Z,100399.53
2019-05-26T22:51:31.593Z,100390.88
2019-05-26T22:54:01.993Z,100395.58
2019-05-26T22:56:31.899Z,100390.86
2019-05-26T22:59:02.158Z,100392.84
2019-05-26T23:01:32.139Z,100402.13
2019-05-26T23:04:03.281Z,100394.04
2019-05-26T23:06:33.761Z,100387.95
2019-05-26T23:09:03.956Z,100384.92
2019-05-26T23:11:33.890Z,100381.98
2019-05-26T23:14:03.868Z,100384.88
2019-05-26T23:16:33.915Z,100382.38
2019-05-26T23:19:18.338Z,100378.40
2019-05-26T23:21:35.562Z,100372.77
2019-05-26T23:24:05.578Z,100369.19
2019-05-26T23:26:35.508Z,100363.30
2019-05-26T23:29:05.774Z,100367.30
2019-05-26T23:31:35.703Z,100365.33
2019-05-26T23:34:05.731Z,100360.72
2019-05-26T23:36:35.590Z,100354.67
2019-05-26T23:39:06.888Z,100353.47
2019-05-26T23:41:36.800Z,100362.13
2019-05-26T23:44:06.689Z,100353.76
2019-05-26T23:46:36.665Z,100351.92
2019-05-26T23:49:06.802Z,100358.00
2019-05-26T23:51:36.684Z,100355.45
2019-05-26T23:54:06.759Z,100352.39
2019-05-26T23:56:36.672Z,100348.53
2019-05-26T23:59:06.596Z,100349.09
